Time;durP1;ratioP1;P1;durP2;ratioP2;P2;SDS_P1;SDS_P2;PMS_P1;PMS_P2;Temp;Humidity;BMP_temperature;BMP_pressure;BME280_temperature;BME280_humidity;BME280_pressure;Samples;Min_cycle;Max_cycle;Signal;HPM_P1;HPM_P2
2023/04/16 00:02:14;;;;;;;6.75;1.80;;;;;;;7.22;88.67;102060.44;4948372;28;20070;-79
2023/04/16 00:04:39;;;;;;;3.83;1.60;;;;;;;7.20;88.86;102049.22;4953192;28;20090;-79
2023/04/16 00:07:05;;;;;;;6.10;1.90;;;;;;;7.21;88.45;102058.72;4951247;28;20034;-79
2023/04/16 00:09:30;;;;;;;4.75;1.70;;;;;;;7.21;88.82;102063.88;4953729;28;20039;-79
2023/04/16 00:11:55;;;;;;;5.20;1.63;;;;;;;7.20;89.42;102056.97;4946937;28;20031;-78
2023/04/16 00:14:21;;;;;;;4.55;1.70;;;;;;;7.22;88.34;102055.25;4950217;28;20394;-78
2023/04/16 00:16:46;;;;;;;6.47;1.60;;;;;;;7.20;89.62;102056.97;4943437;28;20070;-79
2023/04/16 00:19:12;;;;;;;3.92;1.42;;;;;;;7.20;88.61;102054.38;4950580;28;20027;-78
2023/04/16 00:21:37;;;;;;;6.68;1.80;;;;;;;7.18;89.26;102053.50;4949020;28;20035;-79
2023/04/16 00:24:03;;;;;;;5.95;1.63;;;;;;;7.19;89.19;102055.22;4952095;28;20035;-79
2023/04/16 00:26:28;;;;;;;5.60;1.70;;;;;;;7.19;89.61;102052.66;4950080;28;20035;-79
2023/04/16 00:28:53;;;;;;;7.28;1.98;;;;;;;7.20;89.55;102059.56;4951029;28;20406;-78
2023/04/16 00:31:26;;;;;;;8.52;1.95;;;;;;;7.18;90.30;102058.69;4950023;28;20059;-79
2023/04/16 00:33:52;;;;;;;3.83;1.60;;;;;;;7.20;90.08;102057.84;4948662;28;20042;-79
2023/04/16 00:36:17;;;;;;;5.90;1.63;;;;;;;7.22;89.35;102058.75;4947935;28;20023;-78
2023/04/16 00:38:42;;;;;;;6.00;1.75;;;;;;;7.20;90.24;102046.63;4952336;28;20118;-78
2023/04/16 00:41:08;;;;;;;6.75;1.60;;;;;;;7.19;90.49;102052.66;4951233;28;20438;-78
2023/04/16 00:43:33;;;;;;;7.13;1.83;;;;;;;7.21;90.17;102053.53;4959811;28;20046;-78
2023/04/16 00:45:59;;;;;;;5.47;1.80;;;;;;;7.19;90.84;102053.53;4954066;28;20034;-78
2023/04/16 00:48:26;;;;;;;5.97;1.75;;;;;;;7.20;91.02;102056.97;4947837;28;20027;-78
2023/04/16 00:50:54;;;;;;;3.60;1.73;;;;;;;7.21;91.01;102053.53;4946391;28;20027;-78
2023/04/16 00:53:19;;;;;;;5.82;1.90;;;;;;;7.23;90.32;102047.53;4951284;28;20038;-78
2023/04/16 00:55:44;;;;;;;7.43;1.92;;;;;;;7.23;90.97;102057.00;4948718;28;20023;-78
2023/04/16 00:58:10;;;;;;;7.60;1.98;;;;;;;7.24;90.76;102048.38;4948783;28;20063;-78
2023/04/16 01:00:35;;;;;;;6.18;2.10;;;;;;;7.26;90.71;102057.03;4951095;28;20031;-78
2023/04/16 01:03:01;;;;;;;6.80;1.85;;;;;;;7.25;91.17;102048.41;4951498;28;20031;-78
2023/04/16 01:05:26;;;;;;;6.55;2.03;;;;;;;7.25;91.38;102055.28;4951797;28;20422;-79
2023/04/16 01:07:51;;;;;;;9.02;2.50;;;;;;;7.23;91.64;102044.06;4947706;28;20044;-78
2023/04/16 01:10:17;;;;;;;6.80;2.25;;;;;;;7.25;91.19;102050.13;4952620;28;20114;-78
2023/04/16 01:12:42;;;;;;;8.05;2.83;;;;;;;7.23;92.40;102051.81;4949044;28;20026;-78
2023/04/16 01:15:08;;;;;;;4.57;2.00;;;;;;;7.24;92.23;102038.03;4930816;28;20122;-79
2023/04/16 01:17:33;;;;;;;5.38;1.90;;;;;;;7.25;91.10;102040.66;4949715;28;20328;-79
2023/04/16 01:19:59;;;;;;;5.15;1.98;;;;;;;7.25;92.28;102035.47;4948001;28;20046;-79
2023/04/16 01:22:25;;;;;;;7.20;2.30;;;;;;;7.27;92.11;102038.91;4944496;28;20038;-78
2023/04/16 01:24:50;;;;;;;5.45;2.17;;;;;;;7.28;91.78;102042.38;4951040;28;20019;-79
2023/04/16 01:27:15;;;;;;;6.50;2.30;;;;;;;7.27;92.76;102043.22;4951406;28;21023;-79
2023/04/16 01:29:41;;;;;;;7.38;2.42;;;;;;;7.27;92.26;102032.88;4949455;28;20517;-79
2023/04/16 01:32:06;;;;;;;6.80;2.65;;;;;;;7.28;92.52;102039.78;4952074;28;20045;-79
2023/04/16 01:34:31;;;;;;;7.15;2.50;;;;;;;7.28;92.59;102042.38;4948448;28;20078;-79
2023/04/16 01:36:57;;;;;;;4.97;2.25;;;;;;;7.28;92.82;102044.97;4948994;28;20071;-79
2023/04/16 01:39:22;;;;;;;6.18;2.40;;;;;;;7.29;92.83;102049.28;4947937;28;20471;-78
2023/04/16 01:41:47;;;;;;;4.65;2.55;;;;;;;7.30;92.62;102048.44;4951456;28;20066;-78
2023/04/16 01:44:12;;;;;;;6.65;2.65;;;;;;;7.30;92.72;102048.44;4948911;28;20495;-78
2023/04/16 01:46:38;;;;;;;5.47;2.38;;;;;;;7.30;92.67;102048.44;4948379;28;20038;-79
2023/04/16 01:49:05;;;;;;;7.32;2.50;;;;;;;7.32;93.26;102051.03;4946843;28;20070;-79
2023/04/16 01:51:31;;;;;;;4.55;2.50;;;;;;;7.30;93.00;102048.44;4956790;28;20031;-79
2023/04/16 01:53:57;;;;;;;5.78;2.30;;;;;;;7.32;93.74;102051.03;4948172;28;20043;-78
2023/04/16 01:56:22;;;;;;;4.50;2.35;;;;;;;7.31;93.12;102044.13;4947009;28;20031;-79
2023/04/16 01:58:47;;;;;;;5.50;2.13;;;;;;;7.31;93.52;102052.75;4948100;28;21501;-79
2023/04/16 02:01:13;;;;;;;4.82;2.38;;;;;;;7.32;94.20;102057.09;4947866;28;20067;-79
2023/04/16 02:03:38;;;;;;;5.57;2.25;;;;;;;7.33;93.64;102053.66;4948915;28;20071;-78
2023/04/16 02:06:04;;;;;;;6.90;2.42;;;;;;;7.34;93.93;102051.91;4946856;28;20503;-78
2023/04/16 02:08:30;;;;;;;5.80;2.35;;;;;;;7.33;93.94;102058.81;4945877;28;20503;-79
2023/04/16 02:10:56;;;;;;;6.05;2.25;;;;;;;7.32;94.53;102059.69;4950114;28;20114;-78
2023/04/16 02:13:22;;;;;;;6.15;2.45;;;;;;;7.31;94.38;102047.59;4949433;28;20038;-79
2023/04/16 02:15:48;;;;;;;6.45;2.53;;;;;;;7.31;94.49;102050.19;4948312;28;20027;-78
2023/04/16 02:18:14;;;;;;;6.20;2.70;;;;;;;7.33;94.47;102058.81;4948544;28;20106;-79
2023/04/16 02:20:41;;;;;;;5.57;2.30;;;;;;;7.34;94.49;102055.38;4947306;28;21073;-78
2023/04/16 02:23:07;;;;;;;5.70;2.00;;;;;;;7.35;94.92;102051.91;4949351;28;20039;-78
2023/04/16 02:25:40;;;;;;;5.68;2.25;;;;;;;7.36;94.98;102053.66;4947969;28;20050;-78
2023/04/16 02:28:09;;;;;;;7.47;2.38;;;;;;;7.35;95.00;102051.91;4953057;28;20039;-78
2023/04/16 02:30:35;;;;;;;6.63;2.47;;;;;;;7.36;95.09;102053.66;4952773;28;20074;-78
2023/04/16 02:33:04;;;;;;;6.18;2.85;;;;;;;7.35;95.63;102044.13;4955813;28;20118;-78
2023/04/16 02:35:30;;;;;;;4.55;2.30;;;;;;;7.36;95.15;102051.06;4956123;28;20031;-79
2023/04/16 02:37:55;;;;;;;6.60;2.65;;;;;;;7.37;95.09;102045.03;4949381;28;20035;-79
2023/04/16 02:40:20;;;;;;;8.38;3.10;;;;;;;7.37;95.12;102049.34;4950686;28;20031;-78
2023/04/16 02:42:46;;;;;;;5.80;2.22;;;;;;;7.37;94.63;102052.78;4949589;28;20039;-78
2023/04/16 02:45:11;;;;;;;6.38;2.45;;;;;;;7.37;95.70;102049.34;4955418;28;20467;-78
2023/04/16 02:47:36;;;;;;;9.02;2.78;;;;;;;7.38;94.59;102057.13;4952175;28;20058;-78
2023/04/16 02:50:02;;;;;;;6.65;2.55;;;;;;;7.37;95.85;102050.19;4953280;28;20082;-78
2023/04/16 02:52:27;;;;;;;7.72;2.83;;;;;;;7.37;95.31;102050.19;4951306;28;20479;-79
2023/04/16 02:54:53;;;;;;;4.32;2.53;;;;;;;7.37;95.68;102054.53;4949949;28;20035;-79
2023/04/16 02:57:18;;;;;;;5.63;2.75;;;;;;;7.37;96.40;102054.53;4952798;28;20031;-79
2023/04/16 02:59:43;;;;;;;7.70;2.90;;;;;;;7.38;95.82;102051.94;4955366;28;20446;-79
2023/04/16 03:02:08;;;;;;;8.32;3.20;;;;;;;7.38;95.89;102062.28;4951575;28;20102;-79
2023/04/16 03:04:34;;;;;;;6.93;2.75;;;;;;;7.38;95.48;102057.13;4954523;28;20035;-79
2023/04/16 03:06:59;;;;;;;5.97;2.60;;;;;;;7.38;95.33;102062.28;4952435;28;20058;-79
2023/04/16 03:09:24;;;;;;;6.82;2.80;;;;;;;7.38;96.23;102067.47;4953941;28;20135;-79
2023/04/16 03:11:49;;;;;;;7.85;2.97;;;;;;;7.39;95.23;102063.19;4955686;28;20668;-79
2023/04/16 03:14:15;;;;;;;6.63;3.25;;;;;;;7.38;95.96;102066.63;4953083;28;20097;-79
2023/04/16 03:16:40;;;;;;;7.72;3.00;;;;;;;7.37;96.46;102065.72;4954504;28;20030;-79
2023/04/16 03:19:05;;;;;;;7.03;3.42;;;;;;;7.37;96.05;102077.81;4951876;28;20395;-79
2023/04/16 03:21:31;;;;;;;9.93;3.40;;;;;;;7.36;96.34;102078.69;4955579;28;20035;-79
2023/04/16 03:23:56;;;;;;;8.80;3.47;;;;;;;7.36;95.43;102084.72;4950853;28;20031;-79
2023/04/16 03:26:21;;;;;;;8.18;3.70;;;;;;;7.36;96.06;102082.13;4950795;28;20028;-79
2023/04/16 03:28:46;;;;;;;6.30;3.53;;;;;;;7.35;96.09;102082.97;4951361;28;20534;-79
2023/04/16 03:31:12;;;;;;;7.85;4.00;;;;;;;7.36;96.48;102082.13;4950441;28;20051;-79
2023/04/16 03:33:37;;;;;;;9.40;4.13;;;;;;;7.37;96.83;102081.25;4945996;28;20118;-79
2023/04/16 03:36:02;;;;;;;8.77;4.13;;;;;;;7.37;96.40;102070.91;4951383;28;20030;-79
2023/04/16 03:38:28;;;;;;;9.25;3.90;;;;;;;7.38;96.85;102076.97;4952237;28;20379;-79
2023/04/16 03:40:53;;;;;;;8.38;4.30;;;;;;;7.37;97.00;102081.25;4954578;28;20042;-79
2023/04/16 03:43:18;;;;;;;8.68;3.85;;;;;;;7.38;96.26;102071.78;4952122;28;20075;-79
2023/04/16 03:45:45;;;;;;;9.52;3.75;;;;;;;7.37;96.31;102070.06;4951914;28;20058;-78
2023/04/16 03:48:10;;;;;;;7.07;3.67;;;;;;;7.37;96.05;102076.09;4953523;28;20430;-79
2023/04/16 03:50:35;;;;;;;8.35;3.72;;;;;;;7.36;96.28;102079.53;4952420;28;20474;-79
2023/04/16 03:53:00;;;;;;;9.20;3.70;;;;;;;7.35;96.08;102075.22;4953315;28;20086;-79
2023/04/16 03:55:27;;;;;;;10.90;3.95;;;;;;;7.35;96.86;102079.53;4946195;28;20378;-79
2023/04/16 03:57:52;;;;;;;10.45;4.07;;;;;;;7.36;96.74;102078.69;4952189;28;20482;-79
2023/04/16 04:00:17;;;;;;;10.05;4.78;;;;;;;7.36;96.31;102089.88;4948373;28;20035;-79
2023/04/16 04:02:43;;;;;;;9.57;4.18;;;;;;;7.34;96.83;102083.84;4950037;28;20085;-79
2023/04/16 04:05:08;;;;;;;9.50;4.50;;;;;;;7.35;96.80;102087.28;4949172;28;20027;-79
2023/04/16 04:07:33;;;;;;;9.98;4.50;;;;;;;7.35;97.11;102089.88;4952483;28;20535;-79
2023/04/16 04:09:58;;;;;;;11.25;4.90;;;;;;;7.35;96.99;102084.72;4948345;28;20168;-79
2023/04/16 04:12:24;;;;;;;10.95;4.88;;;;;;;7.36;96.85;102087.28;4950774;28;20046;-78
2023/04/16 04:14:49;;;;;;;10.30;5.10;;;;;;;7.36;96.41;102097.66;4948260;28;20487;-78
2023/04/16 04:17:15;;;;;;;13.82;4.90;;;;;;;7.36;96.39;102094.22;4954548;28;20091;-79
2023/04/16 04:19:40;;;;;;;9.15;4.68;;;;;;;7.36;96.17;102095.06;4949921;28;20098;-79
2023/04/16 04:22:05;;;;;;;11.45;5.35;;;;;;;7.35;96.40;102093.31;4950800;28;20030;-79
2023/04/16 04:24:31;;;;;;;12.85;5.80;;;;;;;7.35;97.11;102090.75;4948268;28;20464;-79
2023/04/16 04:26:56;;;;;;;11.02;5.75;;;;;;;7.35;96.53;102087.28;4950964;28;20039;-79
2023/04/16 04:29:21;;;;;;;11.55;5.57;;;;;;;7.35;96.85;102088.16;4947045;28;20057;-79
2023/04/16 04:31:47;;;;;;;13.23;6.22;;;;;;;7.35;96.80;102093.31;4948080;28;20039;-79
2023/04/16 04:34:12;;;;;;;14.13;5.93;;;;;;;7.34;97.21;102095.91;4949440;28;20055;-79
2023/04/16 04:36:37;;;;;;;11.48;5.85;;;;;;;7.33;97.00;102094.19;4950064;28;20110;-79
2023/04/16 04:39:02;;;;;;;11.35;6.28;;;;;;;7.34;96.98;102090.75;4951837;28;20031;-79
2023/04/16 04:41:28;;;;;;;12.23;5.93;;;;;;;7.35;97.14;102103.69;4947438;28;20036;-79
2023/04/16 04:43:53;;;;;;;14.60;6.10;;;;;;;7.35;96.81;102097.66;4948375;28;20030;-78
2023/04/16 04:46:18;;;;;;;13.82;6.35;;;;;;;7.33;97.15;102105.44;4951908;28;20067;-79
2023/04/16 04:48:44;;;;;;;10.77;5.88;;;;;;;7.36;96.41;102105.41;4949691;28;20065;-79
2023/04/16 04:51:09;;;;;;;13.18;5.70;;;;;;;7.36;96.19;102109.75;4951190;28;20027;-79
2023/04/16 04:53:34;;;;;;;12.18;5.80;;;;;;;7.34;96.84;102106.28;4949956;28;21545;-79
2023/04/16 04:56:00;;;;;;;11.65;5.97;;;;;;;7.34;97.23;102114.03;4949864;28;20455;-79
2023/04/16 04:58:25;;;;;;;9.38;5.45;;;;;;;7.33;97.41;102118.38;4948879;28;20038;-79
2023/04/16 05:00:50;;;;;;;9.05;5.43;;;;;;;7.34;97.30;102112.34;4948035;28;20046;-79
2023/04/16 05:03:20;;;;;;;11.05;5.80;;;;;;;7.33;97.22;102118.38;4943961;28;20035;-79
2023/04/16 05:05:45;;;;;;;11.80;5.55;;;;;;;7.33;96.95;102114.91;4947525;28;20027;-79
2023/04/16 05:08:10;;;;;;;11.43;5.35;;;;;;;7.32;96.89;102124.41;4949840;28;20027;-79
2023/04/16 05:10:36;;;;;;;10.70;4.82;;;;;;;7.32;97.29;102124.41;4952203;28;20114;-79
2023/04/16 05:13:01;;;;;;;13.70;5.28;;;;;;;7.32;97.02;102124.41;4951626;28;20057;-79
2023/04/16 05:15:26;;;;;;;12.45;5.22;;;;;;;7.31;97.02;102117.47;4952068;28;20031;-79
2023/04/16 05:17:52;;;;;;;10.85;5.50;;;;;;;7.31;97.85;102120.06;4949876;28;20035;-79
2023/04/16 05:20:17;;;;;;;11.00;4.75;;;;;;;7.32;98.14;102126.09;4948985;28;20036;-79
2023/04/16 05:22:42;;;;;;;10.93;5.43;;;;;;;7.31;97.72;102126.94;4952202;28;21624;-79
2023/04/16 05:25:08;;;;;;;9.55;4.90;;;;;;;7.31;97.51;102121.78;4950830;28;20063;-79
2023/04/16 05:27:33;;;;;;;10.57;4.88;;;;;;;7.32;97.38;102124.41;4950202;28;20030;-78
2023/04/16 05:29:58;;;;;;;10.93;5.78;;;;;;;7.33;97.35;102120.97;4950145;28;20059;-78
2023/04/16 05:32:25;;;;;;;12.80;5.68;;;;;;;7.33;97.00;102126.13;4946799;28;20027;-79
2023/04/16 05:34:50;;;;;;;12.98;5.57;;;;;;;7.35;97.55;102131.31;4949162;28;20024;-79
2023/04/16 05:37:15;;;;;;;12.73;5.38;;;;;;;7.36;97.85;102135.63;4951262;28;20479;-79
2023/04/16 05:39:40;;;;;;;10.60;5.57;;;;;;;7.36;98.04;102136.50;4945054;28;20027;-79
2023/04/16 05:42:06;;;;;;;11.52;5.45;;;;;;;7.35;98.10;102137.34;4949060;28;20474;-78
2023/04/16 05:44:32;;;;;;;11.75;5.68;;;;;;;7.37;97.75;102138.22;4946763;28;20050;-79
2023/04/16 05:46:57;;;;;;;14.35;5.63;;;;;;;7.36;98.07;102144.25;4949521;28;20031;-79
2023/04/16 05:49:23;;;;;;;11.75;5.53;;;;;;;7.37;98.35;102135.63;4948291;28;20947;-79
2023/04/16 05:51:48;;;;;;;9.65;5.80;;;;;;;7.37;98.58;102138.22;4949666;28;20109;-79
2023/04/16 05:54:13;;;;;;;11.15;6.18;;;;;;;7.39;98.47;102141.69;4949128;28;20035;-78
2023/04/16 05:56:39;;;;;;;12.15;6.10;;;;;;;7.41;97.79;102140.00;4951379;28;20394;-79
2023/04/16 05:59:04;;;;;;;15.93;6.45;;;;;;;7.42;97.77;102140.88;4949772;28;20050;-78
2023/04/16 06:01:29;;;;;;;14.13;5.93;;;;;;;7.43;97.55;102148.66;4952775;28;20051;-79
2023/04/16 06:03:55;;;;;;;14.32;6.07;;;;;;;7.44;98.14;102150.38;4949400;28;20154;-79
2023/04/16 06:06:20;;;;;;;12.60;6.32;;;;;;;7.47;98.40;102148.69;4950071;28;20118;-79
2023/04/16 06:08:45;;;;;;;14.48;6.45;;;;;;;7.48;99.16;102156.44;4955210;28;20086;-79
2023/04/16 06:11:11;;;;;;;15.02;6.30;;;;;;;7.50;99.00;102153.88;4952501;28;20042;-79
2023/04/16 06:13:36;;;;;;;13.40;6.47;;;;;;;7.52;98.72;102152.16;4950969;28;20036;-79
2023/04/16 06:16:01;;;;;;;14.35;6.30;;;;;;;7.53;98.88;102151.28;4954273;28;20034;-79
2023/04/16 06:18:26;;;;;;;15.15;6.65;;;;;;;7.55;99.12;102153.06;4948035;28;20023;-79
2023/04/16 06:20:52;;;;;;;15.18;6.53;;;;;;;7.58;98.02;102157.38;4954460;28;20415;-79
2023/04/16 06:23:17;;;;;;;16.70;6.63;;;;;;;7.57;98.47;102156.53;4951764;28;20031;-78
2023/04/16 06:25:42;;;;;;;17.48;7.65;;;;;;;7.59;98.29;102160.00;4954477;28;20106;-79
2023/04/16 06:28:08;;;;;;;15.38;7.10;;;;;;;7.58;98.67;102155.69;4955693;28;20038;-79
2023/04/16 06:30:33;;;;;;;19.92;7.72;;;;;;;7.60;98.14;102161.72;4949250;28;20566;-79
2023/04/16 06:32:58;;;;;;;15.23;7.20;;;;;;;7.60;97.97;102161.72;4947914;28;20038;-79
2023/04/16 06:35:23;;;;;;;19.10;7.18;;;;;;;7.61;98.70;102172.97;4947193;28;20035;-79
2023/04/16 06:37:49;;;;;;;15.95;6.93;;;;;;;7.62;98.50;102172.09;4950881;28;20023;-79
2023/04/16 06:40:14;;;;;;;15.45;7.10;;;;;;;7.61;98.88;102180.72;4953759;28;20475;-78
2023/04/16 06:42:40;;;;;;;16.63;7.22;;;;;;;7.64;97.96;102179.88;4949068;28;20071;-78
2023/04/16 06:45:07;;;;;;;14.45;6.38;;;;;;;7.65;98.21;102184.19;4952276;28;20390;-78
2023/04/16 06:47:32;;;;;;;16.63;7.00;;;;;;;7.65;98.84;102179.91;4948539;28;20090;-78
2023/04/16 06:49:57;;;;;;;14.30;7.10;;;;;;;7.68;98.22;102190.31;4950657;28;20159;-79
2023/04/16 06:52:22;;;;;;;14.75;7.22;;;;;;;7.68;98.54;102189.41;4949372;28;20046;-79
2023/04/16 06:54:48;;;;;;;15.77;7.55;;;;;;;7.68;98.16;102189.41;4951381;28;21681;-78
2023/04/16 06:57:13;;;;;;;17.17;7.28;;;;;;;7.68;98.64;102190.31;4953547;28;20023;-79
2023/04/16 06:59:38;;;;;;;18.73;7.20;;;;;;;7.70;98.47;102188.56;4951487;28;20041;-79
2023/04/16 07:02:04;;;;;;;20.00;7.68;;;;;;;7.73;98.45;102191.19;4949208;28;20038;-79
2023/04/16 07:04:29;;;;;;;15.48;7.13;;;;;;;7.74;98.78;102194.66;4950415;28;20049;-78
2023/04/16 07:06:55;;;;;;;15.35;7.15;;;;;;;7.74;98.94;102200.69;4949311;28;20167;-79
2023/04/16 07:09:20;;;;;;;13.35;6.80;;;;;;;7.76;98.15;102203.31;4952067;28;20062;-79
2023/04/16 07:11:45;;;;;;;13.07;6.68;;;;;;;7.79;97.78;102199.88;4947757;28;20447;-79
2023/04/16 07:14:11;;;;;;;19.38;7.60;;;;;;;7.76;98.46;102203.31;4946408;28;20031;-79
2023/04/16 07:16:36;;;;;;;14.55;7.07;;;;;;;7.77;98.67;102205.00;4943201;28;20040;-79
2023/04/16 07:19:02;;;;;;;16.73;7.20;;;;;;;7.79;98.91;102207.63;4944364;28;20053;-79
2023/04/16 07:21:27;;;;;;;16.30;7.70;;;;;;;7.81;99.10;102211.13;4945340;28;20039;-79
2023/04/16 07:23:52;;;;;;;17.63;7.65;;;;;;;7.84;98.47;102221.50;4942252;28;21041;-79
2023/04/16 07:26:18;;;;;;;14.90;7.13;;;;;;;7.84;98.97;102211.13;4941445;28;20122;-78
2023/04/16 07:28:43;;;;;;;16.98;7.47;;;;;;;7.87;99.02;102217.22;4938416;28;20475;-78
2023/04/16 07:31:08;;;;;;;20.65;7.75;;;;;;;7.90;99.06;102224.13;4944606;28;20114;-78
2023/04/16 07:33:33;;;;;;;11.98;6.57;;;;;;;7.94;98.64;102225.91;4943524;28;20464;-79
2023/04/16 07:35:59;;;;;;;16.77;7.57;;;;;;;7.97;98.21;102225.91;4940749;28;20392;-78
2023/04/16 07:38:24;;;;;;;15.20;7.18;;;;;;;7.98;98.43;102227.66;4941654;28;20031;-78
2023/04/16 07:40:50;;;;;;;16.65;7.07;;;;;;;8.00;98.08;102228.53;4945166;28;20035;-78
2023/04/16 07:43:15;;;;;;;16.52;7.90;;;;;;;8.02;98.53;102234.59;4947110;28;20067;-78
2023/04/16 07:45:41;;;;;;;16.35;7.38;;;;;;;8.06;98.55;102232.91;4940967;28;20043;-77
2023/04/16 07:48:06;;;;;;;20.25;8.13;;;;;;;8.08;99.06;102241.56;4948933;28;20091;-77
2023/04/16 07:50:32;;;;;;;17.65;7.90;;;;;;;8.09;98.36;102237.22;4942283;28;20218;-77
2023/04/16 07:52:57;;;;;;;16.42;7.97;;;;;;;8.11;97.92;102246.78;4942596;28;20050;-77
2023/04/16 07:55:22;;;;;;;19.27;7.30;;;;;;;8.11;98.39;102251.94;4944344;28;20530;-78
2023/04/16 07:57:47;;;;;;;13.32;7.30;;;;;;;8.14;98.19;102246.75;4947970;28;20203;-78
2023/04/16 08:00:13;;;;;;;17.85;8.40;;;;;;;8.19;97.28;102249.41;4947741;28;20269;-78
2023/04/16 08:02:39;;;;;;;16.67;7.90;;;;;;;8.18;97.78;102248.53;4943190;28;20431;-78
2023/04/16 08:05:05;;;;;;;17.02;8.43;;;;;;;8.23;97.73;102250.28;4945685;28;20438;-78
2023/04/16 08:07:30;;;;;;;16.17;7.47;;;;;;;8.24;97.44;102250.28;4942383;28;20035;-78
2023/04/16 08:09:56;;;;;;;15.93;7.95;;;;;;;8.27;97.43;102257.25;4947492;28;20386;-79
2023/04/16 08:12:21;;;;;;;16.02;7.72;;;;;;;8.29;97.62;102258.09;4949390;28;20114;-78
2023/04/16 08:14:47;;;;;;;15.80;7.40;;;;;;;8.31;97.84;102267.63;4947067;28;20027;-78
2023/04/16 08:17:13;;;;;;;15.95;7.78;;;;;;;8.33;97.68;102268.53;4944436;28;20495;-78
2023/04/16 08:19:38;;;;;;;15.15;7.72;;;;;;;8.34;97.58;102267.66;4948366;28;20034;-79
2023/04/16 08:22:04;;;;;;;14.30;7.50;;;;;;;8.37;97.70;102265.94;4942959;28;20023;-78
2023/04/16 08:24:29;;;;;;;13.77;7.72;;;;;;;8.38;97.20;102271.13;4945714;28;20027;-78
2023/04/16 08:26:55;;;;;;;15.30;7.43;;;;;;;8.39;97.26;102274.59;4942578;28;20490;-78
2023/04/16 08:29:20;;;;;;;16.13;8.32;;;;;;;8.39;97.43;102282.34;4939682;28;20037;-79
2023/04/16 08:31:46;;;;;;;17.35;7.72;;;;;;;8.41;97.04;102281.53;4945805;28;20070;-78
2023/04/16 08:34:11;;;;;;;17.08;7.82;;;;;;;8.43;97.44;102278.94;4927946;28;20027;-78
2023/04/16 08:36:37;;;;;;;18.50;7.93;;;;;;;8.46;97.07;102276.38;4944931;28;20030;-78
2023/04/16 08:39:02;;;;;;;16.75;8.35;;;;;;;8.47;97.30;102278.09;4948056;28;20043;-78
2023/04/16 08:41:31;;;;;;;17.38;7.97;;;;;;;8.50;97.08;102279.00;4944500;28;20062;-77
2023/04/16 08:43:59;;;;;;;18.17;8.45;;;;;;;8.53;97.13;102280.78;4945364;28;20035;-77
2023/04/16 08:46:25;;;;;;;16.63;8.20;;;;;;;8.58;96.99;102279.06;4944203;28;20035;-77
2023/04/16 08:48:53;;;;;;;15.63;7.88;;;;;;;8.62;97.37;102287.75;4942032;28;20404;-78
2023/04/16 08:51:21;;;;;;;16.98;8.75;;;;;;;8.63;96.73;102285.16;4941949;28;20037;-78
2023/04/16 08:53:58;;;;;;;15.55;7.55;;;;;;;8.67;96.48;102288.63;4941531;28;20035;-78
2023/04/16 08:56:23;;;;;;;18.58;8.80;;;;;;;8.71;96.41;102292.13;4942400;28;20062;-77
2023/04/16 08:58:50;;;;;;;16.95;8.95;;;;;;;8.75;96.70;102286.06;4946614;28;20416;-79
2023/04/16 09:01:17;;;;;;;18.17;8.52;;;;;;;8.79;96.53;102288.72;4942487;28;20031;-79
2023/04/16 09:03:46;;;;;;;18.80;8.93;;;;;;;8.81;96.08;102292.16;4939979;28;20054;-79
2023/04/16 09:06:12;;;;;;;18.45;8.82;;;;;;;8.84;96.36;102296.50;4941468;28;20075;-78
2023/04/16 09:08:39;;;;;;;18.23;8.63;;;;;;;8.86;96.39;102300.00;4945789;28;20487;-77
2023/04/16 09:11:05;;;;;;;17.33;8.35;;;;;;;8.90;96.50;102300.84;4941522;28;20394;-78
2023/04/16 09:13:30;;;;;;;18.00;8.85;;;;;;;8.92;96.47;102301.75;4942399;28;20023;-78
2023/04/16 09:15:56;;;;;;;20.58;9.40;;;;;;;8.93;96.10;102301.72;4942335;28;20043;-78
2023/04/16 09:18:22;;;;;;;19.45;9.85;;;;;;;8.94;95.80;102303.47;4947695;28;20042;-78
2023/04/16 09:20:48;;;;;;;18.35;8.88;;;;;;;8.98;95.72;102308.69;4945219;28;20030;-78
2023/04/16 09:23:13;;;;;;;18.73;9.18;;;;;;;9.00;95.38;102317.34;4941355;28;20037;-77
2023/04/16 09:25:39;;;;;;;18.67;9.77;;;;;;;9.02;95.34;102310.44;4937381;28;20684;-78
2023/04/16 09:28:04;;;;;;;23.38;10.35;;;;;;;9.02;95.09;102316.47;4944724;28;20027;-78
2023/04/16 09:30:29;;;;;;;20.50;9.23;;;;;;;9.03;95.57;102317.38;4943413;28;20101;-78
2023/04/16 09:33:11;;;;;;;19.92;9.70;;;;;;;9.05;94.63;102311.31;4945213;28;20113;-77
2023/04/16 09:35:50;;;;;;;18.60;9.43;;;;;;;9.04;94.85;102311.31;4941664;28;20037;-78
2023/04/16 09:38:16;;;;;;;20.90;10.10;;;;;;;9.05;95.18;102320.84;4943644;28;20035;-78
2023/04/16 09:40:42;;;;;;;20.60;10.10;;;;;;;9.06;95.09;102323.44;4947727;28;20038;-79
2023/04/16 09:43:19;;;;;;;23.58;11.13;;;;;;;9.11;94.84;102331.22;4946483;28;20069;-78
2023/04/16 09:45:47;;;;;;;22.60;10.25;;;;;;;9.13;94.94;102324.31;4947353;28;20038;-77
2023/04/16 09:48:13;;;;;;;22.15;10.30;;;;;;;9.16;94.91;102334.72;4941584;28;20038;-77
2023/04/16 09:50:38;;;;;;;22.75;10.98;;;;;;;9.22;94.74;102333.88;4942302;28;20378;-77
2023/04/16 09:53:03;;;;;;;22.15;10.82;;;;;;;9.27;94.81;102332.19;4942981;28;20090;-78
2023/04/16 09:55:28;;;;;;;24.05;10.73;;;;;;;9.31;94.73;102328.69;4941550;28;20114;-78
2023/04/16 09:58:00;;;;;;;18.60;9.63;;;;;;;9.43;95.01;102333.06;4943107;28;20038;-78
2023/04/16 10:00:27;;;;;;;20.67;11.35;;;;;;;9.51;94.72;102330.50;4940313;28;20063;-78
2023/04/16 10:03:05;;;;;;;21.15;11.30;;;;;;;9.60;94.37;102330.53;4944872;28;20031;-79
2023/04/16 10:05:30;;;;;;;23.20;10.65;;;;;;;9.64;94.38;102334.88;4944405;28;20039;-78
2023/04/16 10:08:00;;;;;;;22.15;10.40;;;;;;;9.69;93.93;102334.91;4941419;28;20042;-79
2023/04/16 10:10:25;;;;;;;20.40;10.48;;;;;;;9.69;93.58;102332.28;4940455;28;20378;-78
2023/04/16 10:12:52;;;;;;;20.92;10.88;;;;;;;9.69;93.00;102340.09;4937473;28;20035;-78
2023/04/16 10:15:17;;;;;;;19.77;10.40;;;;;;;9.71;92.76;102338.38;4941308;28;20035;-78
2023/04/16 10:17:43;;;;;;;23.25;10.98;;;;;;;9.70;92.34;102334.88;4941002;28;20034;-79
2023/04/16 10:20:08;;;;;;;24.17;11.77;;;;;;;9.66;92.52;102340.09;4939052;28;20518;-79
2023/04/16 10:22:34;;;;;;;22.63;11.55;;;;;;;9.68;93.07;102343.56;4939404;28;20034;-79
2023/04/16 10:25:00;;;;;;;25.63;10.82;;;;;;;9.75;93.44;102337.47;4941979;28;20847;-78
2023/04/16 10:27:26;;;;;;;23.67;11.43;;;;;;;9.81;92.85;102328.84;4938742;28;20075;-78
2023/04/16 10:29:51;;;;;;;24.02;11.52;;;;;;;9.85;92.32;102335.78;4940185;28;20150;-78
2023/04/16 10:32:19;;;;;;;22.52;12.07;;;;;;;9.90;91.35;102341.00;4939460;28;20499;-79
2023/04/16 10:34:45;;;;;;;23.70;11.18;;;;;;;9.93;91.77;102348.78;4940278;28;20050;-78
2023/04/16 10:37:11;;;;;;;20.25;10.98;;;;;;;9.97;92.07;102337.53;4943366;28;20035;-79
2023/04/16 10:39:36;;;;;;;22.83;11.20;;;;;;;10.05;92.28;102338.41;4936925;28;20408;-79
2023/04/16 10:42:10;;;;;;;20.85;11.50;;;;;;;10.15;91.72;102339.28;4938728;28;20106;-77
2023/04/16 10:44:36;;;;;;;21.73;11.00;;;;;;;10.18;90.74;102339.25;4937174;28;20038;-78
2023/04/16 10:47:01;;;;;;;23.88;10.98;;;;;;;10.21;90.76;102341.00;4938892;28;20036;-78
2023/04/16 10:49:26;;;;;;;20.40;11.15;;;;;;;10.29;90.86;102339.25;4945754;28;20383;-78
2023/04/16 10:52:02;;;;;;;21.95;10.95;;;;;;;10.37;89.82;102345.34;4949643;28;20110;-78
2023/04/16 10:54:30;;;;;;;24.67;12.30;;;;;;;10.45;89.18;102338.41;4948323;28;20391;-79
2023/04/16 10:56:58;;;;;;;19.85;10.90;;;;;;;10.56;89.19;102333.19;4949036;28;20041;-79
2023/04/16 10:59:24;;;;;;;20.10;11.20;;;;;;;10.65;88.78;102344.47;4944860;28;20376;-79
2023/04/16 11:01:54;;;;;;;24.27;11.88;;;;;;;10.65;88.28;102340.13;4943404;28;20391;-78
2023/04/16 11:04:19;;;;;;;22.35;11.55;;;;;;;10.63;88.17;102342.75;4927597;28;20035;-79
2023/04/16 11:07:13;;;;;;;19.17;10.30;;;;;;;10.66;87.92;102341.00;4939570;28;20035;-79
2023/04/16 11:09:50;;;;;;;22.40;11.68;;;;;;;10.64;87.67;102343.59;4941135;28;20032;-78
2023/04/16 11:12:18;;;;;;;20.70;11.23;;;;;;;10.66;88.08;102344.47;4946812;28;20082;-78
2023/04/16 11:14:49;;;;;;;21.63;11.15;;;;;;;10.67;87.74;102341.00;4949515;28;20027;-78
2023/04/16 11:17:14;;;;;;;22.13;10.70;;;;;;;10.66;88.26;102335.81;4946988;28;20610;-79
2023/04/16 11:19:41;;;;;;;24.77;11.50;;;;;;;10.66;87.73;102339.25;4942820;28;20052;-78
2023/04/16 11:22:07;;;;;;;21.88;10.98;;;;;;;10.69;87.71;102339.25;4938181;28;20039;-78